Time;durP1;ratioP1;P1;durP2;ratioP2;P2;SDS_P1;SDS_P2;PMS_P1;PMS_P2;Temp;Humidity;BMP_temperature;BMP_pressure;BME280_temperature;BME280_humidity;BME280_pressure;Samples;Min_cycle;Max_cycle;Signal;HPM_P1;HPM_P2
2022/03/26 00:00:16;;;;;;;11.73;6.10;;;7.90;57.20;;;;;;5015942;28;20176;-73
2022/03/26 00:02:44;;;;;;;9.70;5.60;;;7.80;58.10;;;;;;5014318;28;20246;-74
2022/03/26 00:05:09;;;;;;;8.30;6.60;;;7.80;57.70;;;;;;5015535;28;20292;-73
2022/03/26 00:07:35;;;;;;;10.83;5.33;;;7.80;57.80;;;;;;5011941;28;20270;-73
2022/03/26 00:10:03;;;;;;;12.10;5.90;;;7.80;58.10;;;;;;5009806;28;20184;-72
2022/03/26 00:12:28;;;;;;;11.50;5.23;;;7.80;58.20;;;;;;5006594;28;20177;-72
2022/03/26 00:14:54;;;;;;;6.37;5.23;;;7.70;58.30;;;;;;5011070;28;20251;-74
2022/03/26 00:17:19;;;;;;;9.50;5.97;;;7.70;58.20;;;;;;5008819;28;20220;-73
2022/03/26 00:19:45;;;;;;;5.60;4.93;;;7.70;58.20;;;;;;5003061;28;20185;-73
2022/03/26 00:22:11;;;;;;;8.00;5.33;;;7.70;58.00;;;;;;5008761;28;20192;-72
2022/03/26 00:24:37;;;;;;;7.53;5.57;;;7.70;58.20;;;;;;5013987;28;20717;-73
2022/03/26 00:27:03;;;;;;;10.43;5.83;;;7.60;58.10;;;;;;5008468;28;20697;-74
2022/03/26 00:29:28;;;;;;;9.43;5.07;;;7.60;58.00;;;;;;5009142;28;20177;-74
2022/03/26 00:31:54;;;;;;;9.03;6.03;;;7.60;57.80;;;;;;5017097;28;20208;-73
2022/03/26 00:34:20;;;;;;;9.40;5.53;;;7.60;58.00;;;;;;5014079;28;20642;-73
2022/03/26 00:36:46;;;;;;;8.83;5.97;;;7.60;57.70;;;;;;5010718;28;20653;-73
2022/03/26 00:39:12;;;;;;;9.93;5.37;;;7.50;57.60;;;;;;5016422;28;20205;-73
2022/03/26 00:41:37;;;;;;;10.57;5.17;;;7.50;57.60;;;;;;5012272;28;20250;-73
2022/03/26 00:44:03;;;;;;;11.47;5.63;;;7.50;58.20;;;;;;5009565;28;20217;-72
2022/03/26 00:46:29;;;;;;;11.47;5.30;;;7.50;58.10;;;;;;5019873;28;20673;-73
2022/03/26 00:48:59;;;;;;;8.53;5.37;;;7.40;58.80;;;;;;5010863;28;20184;-73
2022/03/26 00:51:25;;;;;;;7.27;4.87;;;7.40;59.20;;;;;;5016441;28;20263;-72
2022/03/26 00:53:51;;;;;;;4.77;4.37;;;7.30;58.60;;;;;;5013125;28;20184;-72
2022/03/26 00:56:17;;;;;;;6.30;5.00;;;7.20;59.00;;;;;;5013326;28;20284;-72
2022/03/26 00:58:43;;;;;;;4.70;4.10;;;7.20;58.50;;;;;;5009072;28;20602;-72
2022/03/26 01:01:10;;;;;;;5.23;4.60;;;7.20;58.60;;;;;;5012810;28;20255;-73
2022/03/26 01:03:36;;;;;;;8.07;4.00;;;7.10;58.50;;;;;;5011310;28;20207;-72
2022/03/26 01:06:03;;;;;;;5.53;4.43;;;7.10;58.30;;;;;;4999689;28;20201;-73
2022/03/26 01:08:29;;;;;;;5.07;4.27;;;7.00;58.40;;;;;;5012142;28;20184;-73
2022/03/26 01:10:56;;;;;;;4.80;4.07;;;7.00;58.40;;;;;;5012770;28;20192;-73
2022/03/26 01:13:25;;;;;;;5.40;4.60;;;7.00;58.50;;;;;;5013366;28;20180;-72
2022/03/26 01:15:51;;;;;;;6.17;4.13;;;7.00;58.50;;;;;;5016997;28;20188;-71
2022/03/26 01:18:17;;;;;;;5.43;4.37;;;7.00;58.50;;;;;;5008735;28;20762;-74
2022/03/26 01:20:43;;;;;;;5.30;4.07;;;6.90;58.50;;;;;;5011336;28;20264;-72
2022/03/26 01:23:09;;;;;;;6.43;4.80;;;6.90;58.60;;;;;;5012161;28;20568;-73
2022/03/26 01:25:35;;;;;;;4.33;4.00;;;6.90;58.50;;;;;;5014104;28;20248;-73
2022/03/26 01:28:02;;;;;;;14.03;5.23;;;6.90;58.40;;;;;;5010089;28;20242;-72
2022/03/26 01:30:29;;;;;;;8.77;4.90;;;6.90;58.50;;;;;;5007033;28;20568;-72
2022/03/26 01:32:55;;;;;;;6.97;4.83;;;6.90;58.90;;;;;;5006874;28;21133;-73
2022/03/26 01:35:21;;;;;;;4.87;4.40;;;6.80;59.30;;;;;;5015009;28;20247;-72
2022/03/26 01:37:47;;;;;;;6.50;4.03;;;6.80;59.50;;;;;;5011319;28;20669;-73
2022/03/26 01:40:13;;;;;;;4.60;3.90;;;6.70;59.40;;;;;;5011085;28;20227;-72
2022/03/26 01:42:41;;;;;;;7.90;4.70;;;6.70;59.60;;;;;;5011155;28;20625;-72
2022/03/26 01:45:12;;;;;;;11.43;4.57;;;6.70;59.50;;;;;;5014857;28;20251;-72
2022/03/26 01:47:39;;;;;;;8.63;4.27;;;6.60;60.00;;;;;;5004041;28;20243;-72
2022/03/26 01:50:06;;;;;;;5.33;4.00;;;6.50;60.60;;;;;;5027127;28;20227;-74
2022/03/26 01:52:32;;;;;;;8.43;5.13;;;6.50;61.10;;;;;;5008269;28;20196;-72
2022/03/26 01:54:58;;;;;;;5.30;4.80;;;6.40;61.80;;;;;;5008382;28;20662;-72
2022/03/26 01:57:25;;;;;;;4.23;3.83;;;6.30;62.10;;;;;;5012912;28;20184;-72
2022/03/26 01:59:52;;;;;;;5.47;4.60;;;6.20;61.70;;;;;;5016285;28;20875;-73
2022/03/26 02:02:18;;;;;;;7.37;4.00;;;6.20;61.70;;;;;;5012595;28;20196;-74
2022/03/26 02:04:44;;;;;;;5.40;4.20;;;6.20;61.60;;;;;;5011985;28;20228;-73
2022/03/26 02:07:09;;;;;;;5.27;4.33;;;6.20;62.00;;;;;;5009035;28;20896;-73
2022/03/26 02:09:35;;;;;;;4.60;3.87;;;6.10;61.90;;;;;;5007250;28;20192;-73
2022/03/26 02:12:03;;;;;;;4.90;4.03;;;6.10;61.60;;;;;;5011682;28;20172;-73
2022/03/26 02:14:29;;;;;;;7.17;3.80;;;6.00;61.30;;;;;;5007793;28;20678;-73
2022/03/26 02:16:56;;;;;;;5.43;4.00;;;6.00;61.60;;;;;;5011055;28;20869;-72
2022/03/26 02:19:22;;;;;;;5.63;4.27;;;6.00;61.60;;;;;;5005898;28;20188;-73
2022/03/26 02:21:49;;;;;;;5.83;4.40;;;5.90;61.80;;;;;;5014425;28;20297;-72
2022/03/26 02:24:16;;;;;;;8.77;4.80;;;5.90;61.70;;;;;;5010565;28;20208;-74
2022/03/26 02:26:42;;;;;;;4.77;4.30;;;5.90;61.60;;;;;;5013578;28;20242;-73
2022/03/26 02:29:12;;;;;;;6.43;4.17;;;5.90;62.00;;;;;;5010425;28;20552;-73
2022/03/26 02:31:39;;;;;;;7.50;4.73;;;5.90;62.10;;;;;;5020621;28;20177;-73
2022/03/26 02:34:06;;;;;;;5.43;4.17;;;5.90;62.50;;;;;;5011684;28;20251;-73
2022/03/26 02:36:33;;;;;;;4.43;4.10;;;5.80;62.10;;;;;;5015109;28;20262;-73
2022/03/26 02:38:58;;;;;;;8.93;4.50;;;5.80;62.40;;;;;;5018124;28;20680;-72
2022/03/26 02:41:24;;;;;;;7.93;4.57;;;5.80;62.30;;;;;;5021465;28;20282;-73
2022/03/26 02:43:50;;;;;;;8.23;4.37;;;5.80;62.60;;;;;;5020265;28;20219;-73
2022/03/26 02:46:15;;;;;;;9.77;4.63;;;5.80;62.60;;;;;;5015043;28;20185;-74
2022/03/26 02:48:44;;;;;;;6.07;4.43;;;5.80;62.60;;;;;;5015228;28;20917;-73
2022/03/26 02:51:10;;;;;;;4.73;4.33;;;5.80;62.90;;;;;;5001568;28;20195;-73
2022/03/26 02:53:35;;;;;;;7.03;4.43;;;5.70;62.80;;;;;;5013200;28;20177;-74
2022/03/26 02:56:01;;;;;;;5.00;4.50;;;5.70;62.70;;;;;;5018956;28;20703;-73
2022/03/26 02:58:27;;;;;;;6.10;4.90;;;5.70;63.30;;;;;;5015207;28;20183;-73
2022/03/26 03:00:52;;;;;;;4.60;4.00;;;5.70;63.40;;;;;;5016321;28;20185;-73
2022/03/26 03:03:18;;;;;;;6.27;4.43;;;5.60;63.40;;;;;;5015400;28;20181;-73
2022/03/26 03:05:46;;;;;;;6.70;4.30;;;5.60;63.40;;;;;;5012417;28;20216;-73
2022/03/26 03:08:14;;;;;;;9.90;4.43;;;5.60;63.30;;;;;;5008764;28;20189;-72
2022/03/26 03:10:40;;;;;;;8.13;4.40;;;5.60;63.40;;;;;;5011212;28;20185;-72
2022/03/26 03:13:06;;;;;;;7.43;4.60;;;5.60;63.60;;;;;;5010439;28;20185;-72
2022/03/26 03:15:33;;;;;;;5.13;4.63;;;5.60;64.00;;;;;;5011616;28;20253;-72
2022/03/26 03:17:58;;;;;;;6.90;6.07;;;5.50;63.90;;;;;;5012072;28;20183;-74
2022/03/26 03:20:25;;;;;;;7.73;4.93;;;5.50;63.70;;;;;;5011455;28;20188;-73
2022/03/26 03:22:51;;;;;;;9.17;5.67;;;5.50;63.80;;;;;;5011136;28;20227;-73
2022/03/26 03:25:18;;;;;;;6.97;4.90;;;5.50;63.60;;;;;;5015508;28;20219;-73
2022/03/26 03:27:43;;;;;;;8.43;4.87;;;5.50;63.50;;;;;;5018006;28;20176;-74
2022/03/26 03:30:11;;;;;;;7.27;5.13;;;5.40;63.60;;;;;;5012607;28;20200;-74
2022/03/26 03:32:37;;;;;;;9.20;5.17;;;5.40;63.60;;;;;;5012740;28;20176;-74
2022/03/26 03:35:05;;;;;;;8.07;5.87;;;5.30;63.60;;;;;;5016827;28;20211;-73
2022/03/26 03:37:35;;;;;;;9.83;5.13;;;5.30;63.60;;;;;;5010540;28;20185;-73
2022/03/26 03:40:01;;;;;;;7.20;4.83;;;5.30;63.50;;;;;;5016241;28;20185;-73
2022/03/26 03:42:27;;;;;;;6.57;4.93;;;5.20;63.70;;;;;;5015296;28;20184;-73
2022/03/26 03:44:52;;;;;;;10.00;4.97;;;5.20;64.00;;;;;;5014770;28;20212;-72
2022/03/26 03:47:18;;;;;;;5.93;5.10;;;5.10;63.80;;;;;;5010908;28;20186;-72
2022/03/26 03:49:44;;;;;;;8.47;5.57;;;5.10;64.00;;;;;;5009521;28;20192;-72
2022/03/26 03:52:11;;;;;;;7.30;5.60;;;5.10;63.90;;;;;;5014359;28;20991;-72
2022/03/26 03:54:37;;;;;;;10.97;5.10;;;5.10;63.80;;;;;;5015363;28;20686;-72
2022/03/26 03:57:03;;;;;;;7.70;5.50;;;5.10;63.90;;;;;;5013924;28;20181;-73
2022/03/26 03:59:29;;;;;;;7.27;5.57;;;5.10;63.90;;;;;;5017041;28;20255;-73
2022/03/26 04:01:55;;;;;;;8.60;5.77;;;5.00;64.20;;;;;;5006079;28;20181;-73
2022/03/26 04:04:20;;;;;;;9.23;5.67;;;5.00;64.00;;;;;;5011671;28;20217;-72
2022/03/26 04:06:46;;;;;;;9.73;6.10;;;5.00;64.00;;;;;;5014329;28;20227;-72
2022/03/26 04:09:12;;;;;;;9.77;5.97;;;5.00;64.20;;;;;;5013582;28;20721;-72
2022/03/26 04:11:37;;;;;;;9.10;6.27;;;5.00;64.30;;;;;;5019879;28;20277;-72
2022/03/26 04:14:04;;;;;;;14.57;6.53;;;4.90;64.30;;;;;;5008367;28;20192;-72
2022/03/26 04:16:30;;;;;;;17.67;6.87;;;4.90;64.50;;;;;;5011837;28;20253;-72
2022/03/26 04:18:58;;;;;;;10.07;6.67;;;4.90;64.70;;;;;;5013520;28;20181;-73
2022/03/26 04:21:24;;;;;;;8.37;6.00;;;4.90;64.90;;;;;;5017457;28;20185;-72
2022/03/26 04:23:51;;;;;;;10.43;6.03;;;4.90;64.90;;;;;;5019231;28;20180;-73
2022/03/26 04:26:17;;;;;;;7.43;5.67;;;4.90;64.90;;;;;;5025992;28;20547;-72
2022/03/26 04:28:43;;;;;;;8.63;5.10;;;4.90;65.20;;;;;;5017996;28;20212;-74
2022/03/26 04:31:09;;;;;;;7.30;5.27;;;4.90;65.20;;;;;;5018885;28;20199;-74
2022/03/26 04:33:35;;;;;;;8.23;5.53;;;4.90;65.10;;;;;;5015034;28;20264;-72
2022/03/26 04:36:02;;;;;;;8.60;5.90;;;4.80;65.20;;;;;;5014655;28;20195;-72
2022/03/26 04:38:27;;;;;;;7.53;6.03;;;4.80;65.10;;;;;;5016448;28;20216;-74
2022/03/26 04:40:53;;;;;;;13.60;6.33;;;4.80;65.00;;;;;;5011801;28;20216;-73
2022/03/26 04:43:20;;;;;;;11.33;5.50;;;4.80;65.10;;;;;;5015896;28;20181;-73
2022/03/26 04:45:46;;;;;;;11.10;6.40;;;4.80;65.50;;;;;;5012861;28;20231;-72
2022/03/26 04:48:13;;;;;;;11.27;5.77;;;4.80;65.30;;;;;;5015324;28;20180;-72
2022/03/26 04:50:39;;;;;;;10.77;5.93;;;4.80;65.40;;;;;;5013831;28;20882;-73
2022/03/26 04:53:05;;;;;;;16.03;5.70;;;4.80;65.30;;;;;;5012366;28;20227;-72
2022/03/26 04:55:32;;;;;;;6.37;5.73;;;4.80;65.60;;;;;;5014053;28;20192;-73
2022/03/26 04:57:58;;;;;;;9.90;6.50;;;4.80;65.50;;;;;;5011071;28;20185;-74
2022/03/26 05:00:24;;;;;;;10.20;6.70;;;4.80;65.80;;;;;;5010211;28;20666;-71
2022/03/26 05:02:50;;;;;;;15.77;6.93;;;4.80;66.10;;;;;;5010934;28;20185;-72
2022/03/26 05:05:16;;;;;;;16.17;6.53;;;4.80;66.40;;;;;;5007919;28;20212;-73
2022/03/26 05:07:48;;;;;;;9.33;6.30;;;4.90;66.70;;;;;;5009339;28;20193;-72
2022/03/26 05:10:19;;;;;;;13.27;6.50;;;4.90;66.50;;;;;;5010898;28;20287;-72
2022/03/26 05:12:46;;;;;;;11.97;7.40;;;4.90;66.50;;;;;;5003866;28;21706;-72
2022/03/26 05:15:13;;;;;;;9.70;6.40;;;4.80;66.70;;;;;;5012237;28;20197;-71
2022/03/26 05:17:39;;;;;;;8.60;6.67;;;4.90;66.50;;;;;;5007942;28;20754;-71
2022/03/26 05:20:06;;;;;;;10.27;6.77;;;4.80;66.70;;;;;;5009679;28;20260;-73
2022/03/26 05:22:32;;;;;;;9.37;6.93;;;4.80;66.80;;;;;;5012565;28;20184;-73
2022/03/26 05:24:58;;;;;;;11.03;6.03;;;4.80;66.50;;;;;;5013404;28;20278;-73
2022/03/26 05:27:24;;;;;;;11.77;7.27;;;4.80;66.30;;;;;;5020339;28;20266;-73
2022/03/26 05:29:49;;;;;;;10.80;6.03;;;4.80;66.40;;;;;;5007898;28;20193;-73
2022/03/26 05:32:16;;;;;;;10.23;5.73;;;4.90;66.10;;;;;;5007126;28;20238;-72
2022/03/26 05:34:44;;;;;;;8.20;5.87;;;4.90;66.40;;;;;;5007251;28;20184;-71
2022/03/26 05:37:10;;;;;;;11.50;6.37;;;4.90;66.20;;;;;;5010043;28;20177;-72
2022/03/26 05:39:36;;;;;;;11.30;6.07;;;5.00;66.10;;;;;;5015540;28;20185;-72
2022/03/26 05:42:01;;;;;;;6.83;5.37;;;5.00;66.50;;;;;;5008767;28;20222;-72
2022/03/26 05:44:27;;;;;;;10.27;6.07;;;5.00;66.20;;;;;;5014472;28;20239;-73
2022/03/26 05:46:53;;;;;;;12.17;6.23;;;5.10;66.10;;;;;;5012639;28;20184;-72
2022/03/26 05:49:19;;;;;;;9.93;6.07;;;5.10;66.30;;;;;;5013112;28;20649;-72
2022/03/26 05:51:45;;;;;;;12.00;6.97;;;5.20;66.40;;;;;;5007378;28;21010;-70
2022/03/26 05:54:12;;;;;;;8.80;6.37;;;5.30;67.00;;;;;;5012723;28;20188;-72
2022/03/26 05:56:38;;;;;;;11.57;6.77;;;5.30;66.20;;;;;;5010287;28;20208;-71
2022/03/26 05:59:11;;;;;;;10.53;6.27;;;5.30;66.70;;;;;;5013442;28;20277;-71
2022/03/26 06:01:37;;;;;;;10.67;6.77;;;5.30;66.10;;;;;;5013749;28;20765;-71
2022/03/26 06:04:03;;;;;;;6.80;6.00;;;5.30;66.90;;;;;;5009933;28;20354;-71
2022/03/26 06:06:29;;;;;;;11.47;7.13;;;5.30;66.50;;;;;;5013532;28;20197;-72
2022/03/26 06:08:54;;;;;;;13.53;7.00;;;5.40;66.50;;;;;;5014028;28;20944;-70
2022/03/26 06:11:20;;;;;;;19.37;7.90;;;5.40;66.60;;;;;;5015735;28;20193;-70
2022/03/26 06:13:46;;;;;;;9.53;7.00;;;5.40;66.20;;;;;;5009608;28;20234;-71
2022/03/26 06:16:13;;;;;;;11.60;6.53;;;5.40;66.40;;;;;;5017834;28;20176;-71
2022/03/26 06:18:39;;;;;;;9.43;6.40;;;5.50;66.10;;;;;;5014454;28;20181;-73
2022/03/26 06:21:05;;;;;;;17.57;7.73;;;5.50;66.00;;;;;;5014573;28;20223;-71
2022/03/26 06:23:34;;;;;;;9.93;6.83;;;5.60;66.20;;;;;;5012251;28;20263;-72
2022/03/26 06:25:59;;;;;;;9.77;6.50;;;5.60;66.50;;;;;;5012181;28;20302;-71
2022/03/26 06:28:25;;;;;;;9.47;6.60;;;5.60;66.40;;;;;;5010977;28;20267;-72
2022/03/26 06:30:51;;;;;;;11.70;6.97;;;5.70;66.60;;;;;;5010813;28;20287;-71
2022/03/26 06:33:18;;;;;;;11.23;6.70;;;5.70;66.20;;;;;;5014905;28;20737;-72
2022/03/26 06:35:46;;;;;;;12.27;7.03;;;5.70;66.20;;;;;;5012609;28;20243;-72
2022/03/26 06:38:13;;;;;;;14.20;7.07;;;5.80;65.60;;;;;;5013086;28;20185;-71
2022/03/26 06:40:40;;;;;;;11.60;7.63;;;5.90;65.90;;;;;;5017341;28;20726;-72
2022/03/26 06:43:07;;;;;;;9.93;7.23;;;5.90;65.90;;;;;;5015423;28;20189;-72
2022/03/26 06:45:36;;;;;;;15.30;7.93;;;6.00;66.00;;;;;;5017081;28;20240;-71
2022/03/26 06:48:03;;;;;;;11.40;7.13;;;6.10;65.50;;;;;;5011895;28;20583;-71
2022/03/26 06:50:29;;;;;;;11.87;7.50;;;6.20;65.10;;;;;;5011515;28;20781;-71
2022/03/26 06:52:55;;;;;;;10.97;7.57;;;6.20;65.30;;;;;;5015199;28;20184;-72
2022/03/26 06:55:21;;;;;;;10.73;7.10;;;6.30;64.90;;;;;;5014093;28;20212;-72
2022/03/26 06:57:49;;;;;;;13.77;7.07;;;6.40;64.70;;;;;;5012737;28;20185;-71
2022/03/26 07:00:16;;;;;;;13.73;7.00;;;6.50;64.50;;;;;;5014269;28;20189;-71
2022/03/26 07:02:42;;;;;;;11.97;7.33;;;6.60;64.40;;;;;;5013729;28;20217;-72
2022/03/26 07:05:08;;;;;;;13.47;7.73;;;6.70;64.10;;;;;;5012098;28;20219;-72
2022/03/26 07:07:34;;;;;;;14.20;7.80;;;6.80;63.70;;;;;;5014167;28;20668;-72
2022/03/26 07:10:00;;;;;;;13.13;7.73;;;6.90;63.60;;;;;;5014062;28;20183;-72
2022/03/26 07:12:29;;;;;;;10.37;8.47;;;7.10;63.70;;;;;;5014393;28;20211;-72
2022/03/26 07:14:55;;;;;;;14.50;8.50;;;7.20;63.20;;;;;;5014199;28;20330;-72
2022/03/26 07:17:21;;;;;;;13.57;8.13;;;7.20;63.00;;;;;;5010972;28;20756;-72
2022/03/26 07:19:48;;;;;;;11.73;7.77;;;7.30;63.00;;;;;;5012706;28;20185;-73
2022/03/26 07:22:14;;;;;;;10.33;7.87;;;7.50;63.10;;;;;;5008731;28;20620;-74
2022/03/26 07:24:40;;;;;;;14.97;8.37;;;7.50;62.50;;;;;;5012804;28;20208;-73
2022/03/26 07:27:06;;;;;;;14.27;8.60;;;7.60;62.40;;;;;;5012887;28;20707;-73
2022/03/26 07:29:33;;;;;;;15.73;8.37;;;7.70;62.80;;;;;;5013253;28;20195;-72
2022/03/26 07:31:59;;;;;;;17.63;9.07;;;7.80;62.20;;;;;;5007520;28;20200;-72
2022/03/26 07:34:26;;;;;;;11.10;7.93;;;7.90;62.00;;;;;;5010680;28;20216;-71
2022/03/26 07:36:52;;;;;;;16.93;8.93;;;8.00;62.20;;;;;;5010520;28;20328;-72
2022/03/26 07:39:18;;;;;;;22.93;9.07;;;8.10;61.60;;;;;;5011834;28;20259;-72
2022/03/26 07:41:44;;;;;;;11.00;7.40;;;8.20;61.80;;;;;;5007786;28;20192;-76
2022/03/26 07:44:09;;;;;;;14.47;8.37;;;8.30;61.50;;;;;;5012340;28;20211;-72
2022/03/26 07:46:35;;;;;;;15.33;8.77;;;8.40;61.20;;;;;;5014380;28;20239;-71
2022/03/26 07:49:01;;;;;;;14.93;7.63;;;8.50;60.70;;;;;;5011239;28;20184;-72
2022/03/26 07:51:27;;;;;;;13.67;8.27;;;8.60;60.50;;;;;;5007470;28;20196;-74
2022/03/26 07:53:52;;;;;;;16.47;8.47;;;8.70;60.50;;;;;;5014874;28;20323;-73
2022/03/26 07:56:18;;;;;;;15.07;8.23;;;8.80;59.90;;;;;;5011649;28;20207;-73
2022/03/26 07:58:44;;;;;;;16.40;8.40;;;8.90;60.20;;;;;;5009948;28;20200;-74
2022/03/26 08:01:10;;;;;;;17.77;9.37;;;9.10;60.00;;;;;;5011629;28;20184;-73
2022/03/26 08:03:36;;;;;;;13.60;8.00;;;9.20;59.70;;;;;;5042293;28;20204;-71
2022/03/26 08:06:03;;;;;;;14.27;9.00;;;9.30;59.40;;;;;;5010243;28;20354;-74
2022/03/26 08:08:28;;;;;;;12.97;8.57;;;9.50;59.50;;;;;;5012097;28;20637;-75
2022/03/26 08:10:54;;;;;;;12.20;8.50;;;9.60;58.80;;;;;;5012053;28;20185;-74
2022/03/26 08:13:20;;;;;;;11.57;8.27;;;9.80;58.90;;;;;;5015059;28;20231;-72
2022/03/26 08:15:46;;;;;;;12.70;8.63;;;10.00;58.30;;;;;;5012492;28;20275;-70
2022/03/26 08:18:12;;;;;;;23.27;8.83;;;10.20;57.80;;;;;;5013278;28;20185;-72
2022/03/26 08:20:38;;;;;;;11.53;8.40;;;10.30;56.90;;;;;;5011247;28;20200;-71
2022/03/26 08:23:04;;;;;;;8.73;7.40;;;10.50;56.60;;;;;;5013655;28;20189;-70
2022/03/26 08:28:16;;;;;;;15.67;8.33;;;11.00;56.40;;;;;;5009847;28;20247;-71
2022/03/26 08:30:41;;;;;;;11.17;8.50;;;11.60;55.80;;;;;;5011920;28;20173;-69
2022/03/26 08:33:08;;;;;;;14.03;8.60;;;12.10;54.50;;;;;;5013892;28;20559;-71
2022/03/26 08:35:36;;;;;;;16.23;8.30;;;12.50;53.20;;;;;;5010089;28;20199;-71
2022/03/26 08:38:02;;;;;;;16.88;9.13;;;13.00;52.40;;;;;;5013923;28;20193;-72
2022/03/26 08:40:28;;;;;;;13.07;9.15;;;13.60;51.60;;;;;;5011820;28;20654;-71
2022/03/26 08:42:56;;;;;;;12.07;8.50;;;14.30;51.60;;;;;;5013436;28;20195;-73
2022/03/26 08:45:22;;;;;;;16.30;9.23;;;15.00;50.10;;;;;;5011051;28;20285;-73
2022/03/26 08:47:48;;;;;;;14.57;9.60;;;15.80;49.20;;;;;;5008552;28;20192;-72
2022/03/26 08:50:14;;;;;;;14.90;8.55;;;16.40;47.60;;;;;;5014953;28;20196;-71
2022/03/26 08:52:39;;;;;;;11.32;8.57;;;16.90;46.90;;;;;;5009358;28;20930;-72
2022/03/26 08:55:06;;;;;;;13.68;8.77;;;17.70;46.60;;;;;;5010636;28;20238;-71
2022/03/26 08:57:32;;;;;;;13.43;8.85;;;18.50;45.30;;;;;;5012919;28;20193;-72
2022/03/26 08:59:58;;;;;;;13.68;9.27;;;19.00;44.30;;;;;;5013779;28;20193;-73
2022/03/26 09:02:23;;;;;;;10.63;8.48;;;19.40;43.90;;;;;;5008017;28;20290;-72
2022/03/26 09:04:49;;;;;;;13.57;9.93;;;20.00;43.80;;;;;;5010425;28;20220;-72
2022/03/26 09:07:15;;;;;;;16.60;9.73;;;20.60;43.30;;;;;;5013933;28;20200;-72
2022/03/26 09:09:41;;;;;;;17.48;8.88;;;21.20;43.30;;;;;;5013488;28;20241;-71
2022/03/26 09:12:07;;;;;;;18.20;9.32;;;21.90;42.80;;;;;;5016878;28;20662;-72
2022/03/26 09:14:33;;;;;;;18.17;10.00;;;22.80;42.30;;;;;;5015217;28;20195;-73
2022/03/26 09:16:59;;;;;;;14.32;9.95;;;23.50;40.80;;;;;;5013243;28;20185;-72
2022/03/26 09:19:25;;;;;;;9.23;8.27;;;24.20;40.50;;;;;;5020822;28;20195;-71
2022/03/26 09:21:51;;;;;;;12.63;9.82;;;24.90;40.30;;;;;;5011999;28;20540;-71
2022/03/26 09:24:17;;;;;;;14.27;9.98;;;25.50;39.30;;;;;;5013914;28;20602;-71
2022/03/26 09:26:43;;;;;;;19.60;10.43;;;26.00;39.00;;;;;;5007362;28;20184;-72
2022/03/26 09:29:09;;;;;;;10.13;8.48;;;26.60;38.40;;;;;;5008776;28;20212;-72
2022/03/26 09:31:35;;;;;;;12.05;8.15;;;27.00;37.40;;;;;;5009290;28;20243;-71
2022/03/26 09:34:01;;;;;;;7.43;6.72;;;27.20;37.70;;;;;;5009378;28;20285;-71
2022/03/26 09:36:27;;;;;;;6.93;5.20;;;27.30;37.20;;;;;;5014636;28;20662;-71
2022/03/26 09:38:53;;;;;;;13.63;7.28;;;27.20;37.80;;;;;;5012435;28;20192;-71
2022/03/26 09:41:22;;;;;;;10.27;6.70;;;27.50;37.50;;;;;;5014556;28;20192;-72
2022/03/26 09:43:48;;;;;;;9.13;7.18;;;28.00;38.00;;;;;;5011598;28;20220;-72
2022/03/26 09:46:15;;;;;;;15.43;7.65;;;28.50;37.30;;;;;;5011975;28;20656;-71
2022/03/26 09:48:41;;;;;;;8.35;6.72;;;29.10;37.60;;;;;;5010546;28;20220;-70
2022/03/26 09:51:08;;;;;;;12.45;7.32;;;29.60;36.70;;;;;;5011407;28;20505;-73
2022/03/26 09:53:35;;;;;;;7.63;6.85;;;30.00;36.90;;;;;;5010404;28;20196;-72
2022/03/26 09:56:01;;;;;;;11.30;6.85;;;30.30;36.10;;;;;;5008194;28;20188;-72
2022/03/26 09:58:27;;;;;;;6.35;5.95;;;30.20;34.70;;;;;;5015785;28;20192;-72
2022/03/26 10:00:53;;;;;;;7.10;6.50;;;30.20;35.80;;;;;;5013542;28;20180;-72
2022/03/26 10:03:19;;;;;;;10.40;6.28;;;30.20;35.80;;;;;;5009892;28;20192;-73
2022/03/26 10:05:46;;;;;;;7.28;5.65;;;30.60;36.10;;;;;;5011543;28;20302;-72
2022/03/26 10:08:23;;;;;;;5.65;5.25;;;31.00;35.60;;;;;;5013216;28;20267;-72
2022/03/26 10:10:51;;;;;;;8.38;5.50;;;31.30;34.60;;;;;;5003509;28;20209;-72
2022/03/26 10:13:40;;;;;;;7.78;5.85;;;31.50;34.70;;;;;;5003112;28;20187;-73
2022/03/26 10:16:11;;;;;;;8.75;5.90;;;31.50;33.90;;;;;;5009269;28;20185;-73
2022/03/26 10:18:39;;;;;;;13.85;5.78;;;31.40;35.00;;;;;;5007690;28;20192;-71
2022/03/26 10:21:14;;;;;;;6.07;5.68;;;31.60;35.20;;;;;;5004120;28;20207;-72
2022/03/26 10:23:45;;;;;;;6.90;5.90;;;32.10;35.10;;;;;;5005795;28;20189;-72
2022/03/26 10:26:17;;;;;;;7.15;5.70;;;32.50;34.20;;;;;;5008722;28;20533;-72
2022/03/26 10:28:49;;;;;;;6.07;5.57;;;32.60;33.50;;;;;;5010183;28;20653;-72
2022/03/26 10:34:12;;;;;;;5.95;5.45;;;32.70;33.60;;;;;;5007046;28;20249;-71
2022/03/26 10:36:45;;;;;;;5.75;5.25;;;32.90;33.20;;;;;;5008894;28;20205;-71
2022/03/26 10:39:30;;;;;;;5.97;5.47;;;32.60;34.00;;;;;;5007464;28;20377;-71
2022/03/26 10:41:56;;;;;;;6.78;5.65;;;32.50;33.30;;;;;;5009627;28;20187;-71
2022/03/26 10:44:28;;;;;;;7.75;4.95;;;32.40;33.90;;;;;;5014679;28;20227;-72
2022/03/26 10:46:56;;;;;;;5.22;4.82;;;32.60;33.90;;;;;;5014865;28;20180;-72
2022/03/26 10:49:36;;;;;;;4.57;4.18;;;32.40;33.50;;;;;;5011031;28;20566;-72
2022/03/26 10:52:16;;;;;;;6.63;4.15;;;32.40;33.30;;;;;;5010528;28;20199;-72
2022/03/26 10:54:42;;;;;;;5.07;4.60;;;32.50;33.10;;;;;;5011752;28;20184;-72
2022/03/26 10:57:08;;;;;;;5.35;4.88;;;32.60;33.20;;;;;;5016780;28;20177;-72
2022/03/26 10:59:34;;;;;;;4.95;3.50;;;33.00;32.80;;;;;;5014521;28;20270;-73
2022/03/26 11:02:01;;;;;;;4.32;4.10;;;33.00;32.70;;;;;;5015113;28;20177;-73
2022/03/26 11:04:30;;;;;;;4.13;3.85;;;33.10;32.60;;;;;;5013103;28;20233;-73
2022/03/26 11:06:57;;;;;;;4.43;4.13;;;33.30;33.60;;;;;;5017615;28;20200;-74
2022/03/26 11:09:25;;;;;;;3.97;3.75;;;33.50;32.90;;;;;;5018465;28;20204;-73
2022/03/26 11:11:51;;;;;;;6.20;3.95;;;33.80;33.30;;;;;;5014745;28;20614;-73
2022/03/26 11:14:27;;;;;;;4.90;4.22;;;34.00;33.30;;;;;;5009153;28;20245;-73
2022/03/26 11:17:51;;;;;;;4.40;3.72;;;34.30;32.40;;;;;;5010769;28;20760;-73
2022/03/26 11:20:28;;;;;;;4.60;4.15;;;34.10;31.70;;;;;;5040362;28;20681;-74
2022/03/26 11:23:29;;;;;;;3.45;3.25;;;33.00;32.10;;;;;;5044820;28;20179;-74
2022/03/26 11:26:10;;;;;;;3.80;3.60;;;32.00;32.90;;;;;;5041301;28;20179;-73
2022/03/26 11:28:38;;;;;;;4.50;3.80;;;31.50;33.40;;;;;;5042422;28;20991;-73
2022/03/26 11:31:17;;;;;;;4.55;4.32;;;30.90;33.80;;;;;;5038868;28;20195;-74
2022/03/26 11:33:46;;;;;;;3.65;3.35;;;30.70;34.40;;;;;;5043007;28;20219;-74
2022/03/26 11:36:17;;;;;;;4.47;3.40;;;31.00;33.80;;;;;;5042916;28;20215;-73
2022/03/26 11:38:54;;;;;;;4.97;3.28;;;31.20;33.70;;;;;;5043231;28;20197;-73
2022/03/26 11:41:31;;;;;;;3.60;3.30;;;31.40;33.20;;;;;;5042414;28;20234;-73
2022/03/26 11:43:58;;;;;;;3.38;3.17;;;31.60;32.20;;;;;;5017021;28;20200;-73
2022/03/26 11:52:23;;;;;;;6.22;3.08;;;31.00;31.80;;;;;;5043316;28;20345;-74
2022/03/26 11:54:55;;;;;;;2.47;2.38;;;30.60;32.60;;;;;;5018680;28;20220;-74
2022/03/26 11:57:23;;;;;;;3.30;2.20;;;30.30;32.60;;;;;;5008967;28;20201;-74
2022/03/26 11:59:49;;;;;;;2.38;2.28;;;30.40;32.70;;;;;;5013402;28;20176;-73
2022/03/26 12:02:25;;;;;;;2.65;2.45;;;30.70;31.80;;;;;;5015486;28;20188;-73
2022/03/26 12:04:53;;;;;;;3.53;2.70;;;30.00;32.20;;;;;;5011692;28;20686;-73
2022/03/26 12:07:21;;;;;;;3.10;2.40;;;29.30;33.00;;;;;;5012576;28;20203;-75
2022/03/26 12:10:02;;;;;;;2.92;2.67;;;29.40;32.70;;;;;;5012680;28;20243;-73
2022/03/26 12:12:51;;;;;;;2.10;2.10;;;29.60;31.80;;;;;;5018320;28;20183;-73
2022/03/26 12:15:17;;;;;;;2.60;2.40;;;28.80;32.30;;;;;;5006465;28;20225;-73
2022/03/26 12:17:46;;;;;;;2.90;2.70;;;28.90;32.70;;;;;;5009346;28;20702;-73
2022/03/26 12:20:31;;;;;;;2.95;2.70;;;29.20;32.70;;;;;;5011369;28;20185;-72
2022/03/26 12:23:10;;;;;;;4.05;2.47;;;29.10;32.40;;;;;;5011423;28;20181;-72
2022/03/26 12:25:46;;;;;;;2.90;2.70;;;29.30;32.00;;;;;;5011330;28;20181;-73
2022/03/26 12:28:35;;;;;;;2.90;2.75;;;29.70;32.00;;;;;;5007829;28;20611;-73
2022/03/26 12:31:06;;;;;;;2.83;2.72;;;30.00;31.10;;;;;;5008061;28;20210;-74
2022/03/26 12:33:43;;;;;;;2.85;2.70;;;30.20;32.10;;;;;;5004808;28;20193;-73
2022/03/26 12:36:11;;;;;;;3.05;2.85;;;30.40;31.90;;;;;;5004835;28;20212;-74
2022/03/26 12:38:38;;;;;;;2.85;2.72;;;30.70;32.30;;;;;;5011710;28;20272;-73
2022/03/26 12:41:06;;;;;;;3.13;2.72;;;30.90;32.10;;;;;;5014223;28;20374;-73
2022/03/26 12:43:32;;;;;;;2.38;2.30;;;30.90;32.00;;;;;;5015348;28;20666;-73
2022/03/26 12:46:00;;;;;;;3.15;2.95;;;30.70;31.30;;;;;;5010497;28;20207;-73
2022/03/26 12:48:29;;;;;;;3.13;2.97;;;30.50;31.10;;;;;;5013197;28;20238;-73
2022/03/26 12:51:06;;;;;;;6.97;3.15;;;30.70;31.20;;;;;;5010468;28;20180;-72
2022/03/26 12:53:40;;;;;;;3.13;2.83;;;30.70;31.50;;;;;;5007793;28;20238;-72
2022/03/26 12:56:11;;;;;;;4.22;3.10;;;30.50;31.20;;;;;;5014139;28;20315;-73
2022/03/26 13:01:23;;;;;;;3.60;3.40;;;30.80;31.50;;;;;;5009570;28;20280;-73
2022/03/26 13:03:50;;;;;;;2.92;2.75;;;31.10;31.30;;;;;;5014934;28;20710;-73
2022/03/26 13:06:17;;;;;;;8.20;3.38;;;31.20;31.20;;;;;;5004770;28;20296;-73